x

Matinicus Rock, Me (mism1) Weather Station

7:00am - Sat 23rd Sep 2017 All times are EDT. -4 hours from GMT.

  • Wind
    13mph, 14mph gusts
  • 空気 Temp 56°f
  • Sea Pressure 1016mb
  • Matinicus Rock, Me
  • Matinicus Rock, Me

More Historic Weather Station data

Upgrade to MSW Pro to gain access to the past 30 days of data for over 8000 Wavebouys and Weather Stations around the globe.

Join

Comparision Forecast

View Surf forecast
   
Sat 09/23 7:00am 13 14 mph 1016mb 56f
6:00am 15 16 mph 1016mb 56f
5:00am 14 15 mph 1015.9mb 56f
4:00am 16 17 mph 1016.2mb 56f
3:00am 17 18 mph 1016.6mb 56f
2:00am 17 18 mph 1016.8mb 56f
1:00am 14 15 mph 1016.6mb 57f
12:00am 16 17 mph 1017.1mb 57f
Fri 09/22 11:00pm 17 18 mph 1017.1mb 57f
10:00pm 16 17 mph 1017.1mb 57f
9:00pm 18 20 mph 1017.1mb 57f
8:00pm 20 21 mph 1017.3mb 57f
7:00pm 20 21 mph 1016.9mb 57f
6:00pm 22 23 mph 1017mb 57f
5:00pm 17 20 mph 1017.2mb 57f
4:00pm 22 24 mph 1017.4mb 57f
3:00pm 24 26 mph 1017.5mb 57f
2:00pm 23 25 mph 1017.8mb 56f
1:00pm 23 25 mph 1018.1mb 57f
12:00pm 28 30 mph 1018.2mb 56f
11:00am 24 26 mph 1018.6mb 56f
10:00am 18 21 mph 1018.6mb 55f
9:00am 22 24 mph 1018.5mb 55f
8:00am 31 34 mph 1017.9mb 56f
7:00am 28 32 mph 1018mb 55f
6:00am 30 32 mph 1017.5mb 55f
5:00am 29 33 mph 1017.8mb 55f
4:00am 25 29 mph 1018mb 56f
3:00am 30 33 mph 1018.1mb 56f
2:00am 26 30 mph 1018.6mb 57f
1:00am 30 34 mph 1018.6mb 58f
12:00am 32 37 mph 1018.2mb 58f
Thu 09/21 11:00pm 31 36 mph 1018.2mb 59f
10:00pm 28 33 mph 1018.4mb 59f
9:00pm 26 29 mph 1018mb 59f
8:00pm 24 26 mph 1017.7mb 59f
7:00pm 26 28 mph 1017.3mb 59f
6:00pm 23 24 mph 1017.1mb 58f
5:00pm 25 28 mph 1017mb 58f
4:00pm 22 23 mph 1016.9mb 59f
3:00pm 25 28 mph 1016.9mb 60f
2:00pm 23 25 mph 1017.1mb 60f
1:00pm 25 28 mph 1017mb 60f
12:00pm 29 31 mph 1017.1mb 61f
11:00am 28 30 mph 1017.2mb 60f
10:00am 31 36 mph 1016.9mb 60f
9:00am 26 30 mph 1016.7mb 60f
8:00am 25 31 mph 1015.7mb 60f
7:00am 26 29 mph 1015mb 60f
6:00am 26 29 mph 1014.4mb 61f
5:00am 29 31 mph 1013.8mb 60f
4:00am 30 32 mph 1013.4mb 62f
3:00am 32 36 mph 1012.9mb 63f
2:00am 25 29 mph 1013.1mb 61f
1:00am 25 26 mph 1013.1mb 62f
12:00am 24 25 mph 1013mb 63f
Wed 09/20 11:00pm 22 23 mph 1013.2mb 63f
10:00pm 22 23 mph 1013mb 63f
9:00pm 21 22 mph 1012.5mb 61f
8:00pm 24 25 mph 1012.4mb 60f
7:00pm 22 24 mph 1012.6mb 61f
6:00pm 22 23 mph 1012.6mb 60f
5:00pm 18 21 mph 1012.4mb 60f
4:00pm 20 21 mph 1012.4mb 58f
3:00pm 22 23 mph 1012.7mb 60f
2:00pm 18 18 mph 1013mb 60f
1:00pm 23 24 mph 1013.5mb 61f
12:00pm 24 25 mph 1013.8mb 60f
11:00am 22 23 mph 1014.2mb 60f
10:00am 24 25 mph 1014mb 58f
9:00am 25 26 mph 1014.4mb 59f
8:00am 23 25 mph 1014.5mb 59f
7:00am 24 25 mph 1014.9mb 60f
6:00am 23 26 mph 1014.7mb 59f
5:00am 21 22 mph 1014.5mb 58f
4:00am 21 21 mph 1014.9mb 58f
3:00am 20 21 mph 1015.2mb 58f
2:00am 24 26 mph 1015.6mb 58f
1:00am 21 22 mph 1016.5mb 57f
12:00am 20 21 mph 1016.8mb 57f
Tue 09/19 11:00pm 21 22 mph 1017.2mb 57f
10:00pm 18 20 mph 1017.8mb 56f
9:00pm 18 21 mph 1017.8mb 56f
8:00pm 18 20 mph 1017.8mb 57f
7:00pm 14 15 mph 1018mb 57f
6:00pm 20 20 mph 1018mb 57f
5:00pm 22 23 mph 1018mb 57f
4:00pm 18 20 mph 1018.6mb 57f
3:00pm 20 22 mph 1019.1mb 57f
2:00pm 17 18 mph 1019.8mb 57f
1:00pm 17 18 mph 1020.1mb 57f